Fairbanks International, AK

11:42 AM AKDT on March 27, 2015 (GMT -0800)
19th and Kennedy | | Change Station
CLOSE
Current Station
Personal Weather Station
Location: Fairbanks, AK
Elevation: 440 ft
Nearby Weather Stations

Elev 440 ft 64.83 °N, 147.80 °W | Updated 9 minutes ago

Mostly Cloudy
Mostly Cloudy
38.5 °F
Feels Like 38 °F
N
1.7
Wind Variable Wind from NNW

Today
High -- | Low -- °F
--% Chance of Precip.
Yesterday
High -- | Low -- °F
Precip. -- in
7:26 AM 8:28 PM
First Quarter, 55% visible
Pressure 29.53 in
Visibility 10.0 miles
Clouds Scattered Clouds 7500 ft
Scattered Clouds 10000 ft
Mostly Cloudy 17000 ft
Windchill 38 °F
Dew Point 29 °F
Humidity 69%
Rainfall 0.00 in
Snow Depth Not available.
UV 1 out of 12
Pollen Not available.
Air Quality Not available.
Flu Activity Not available.
METAR PAFA 271853Z 00000KT 10SM SCT075 SCT100 BKN170 02/M04 A2950 RMK AO2 SLP999 T00171039

More Conditions Fewer Conditions

Pressure 29.53 in
Visibility 10.0 miles
Clouds Scattered Clouds 7500 ft
Scattered Clouds 10000 ft
Mostly Cloudy 17000 ft
Windchill 38 °F
Dew Point 29 °F
Humidity 69%
Rainfall 0.00 in
Snow Depth Not available.
UV 1 out of 12
Pollen Not available.
Air Quality Not available.
Flu Activity Not available.
METAR PAFA 271853Z 00000KT 10SM SCT075 SCT100 BKN170 02/M04 A2950 RMK AO2 SLP999 T00171039

More Conditions Fewer Conditions

10-Day Weather Forecast

Almanac

Astronomy

Mar. 27, 2015 Rise Set
Actual Time
Civil Twilight
Nautical Twilight
Astronomical Twilight
Moon
Length of Visible Light
Length of Day
Tomorrow will be .
, % of the Moon is Illuminated

Today's Extremes

State Highs State Lows

Community

WunderPhotos

Upload Photos

1,808,799 photos uploaded!

WunderBlogs® & News

Nearby

Air Quality

  Air Quality AQ Index Pollutant
Not available.

Snow Depth

Station Depth Elevation

Earthquake Activity

City Distance Mag. Time & Date
Minimum magnitude displayed is 2.5.

Coastal Water Temperatures

Place Temperature

Stations

Nearby Weather Stations

Station Location Temp. Windchill Dew Point Humidity Wind Precip. Elev Updated Type